Aviation Digital Data Service (ADDS)

Output produced by METARs form (0814 UTC 30 October 2020)
found at http://www.aviationweather.gov/metar/data/
 
Forecast for: KLAS (LAS VEGAS , NV, US)
Text: KLAS 300520Z 3006/3112 21006KT P6SM SKC
Forecast period: 0600 to 1500 UTC 30 October 2020
Forecast type: FROM: standard forecast or significant change
Winds: from the SSW (210 degrees) at 7 MPH (6 knots; 3.1 m/s)
Visibility: 6 or more miles (10+ km)
Clouds: clear skies
Weather: no significant weather forecast for this period
Text: FM301500 VRB05KT P6SM SKC
Forecast period: 1500 UTC 30 October 2020 to 0200 UTC 31 October 2020
Forecast type: FROM: standard forecast or significant change
Winds: variable direction winds at 6 MPH (5 knots; 2.6 m/s)
Visibility: 6 or more miles (10+ km)
Clouds: clear skies
Weather: no significant weather forecast for this period
Text: FM310200 21006KT P6SM SKC
Forecast period: 0200 to 1200 UTC 31 October 2020
Forecast type: FROM: standard forecast or significant change
Winds: from the SSW (210 degrees) at 7 MPH (6 knots; 3.1 m/s)
Visibility: 6 or more miles (10+ km)
Clouds: clear skies
Weather: no significant weather forecast for this period